createdAt,value
2023-01-22T00:01:26.949Z,98138.54
2023-01-22T00:03:59.641Z,98140.76
2023-01-22T00:06:32.512Z,98140.92
2023-01-22T00:09:05.367Z,98148.77
2023-01-22T00:11:38.270Z,98153.79
2023-01-22T00:14:11.374Z,98153.84
2023-01-22T00:16:44.509Z,98147.44
2023-01-22T00:19:17.369Z,98147.98
2023-01-22T00:21:49.906Z,98154.95
2023-01-22T00:24:22.836Z,98157.24
2023-01-22T00:26:55.877Z,98156.78
2023-01-22T00:29:28.507Z,98159.67
2023-01-22T00:32:01.477Z,98167.20
2023-01-22T00:34:35.595Z,98171.52
2023-01-22T00:37:08.241Z,98170.33
2023-01-22T00:39:41.561Z,98173.58
2023-01-22T00:42:14.433Z,98180.60
2023-01-22T00:44:48.278Z,98179.71
2023-01-22T00:47:22.207Z,98175.14
2023-01-22T00:49:54.618Z,98171.10
2023-01-22T00:52:28.508Z,98177.36
2023-01-22T00:55:01.172Z,98178.23
2023-01-22T00:57:33.767Z,98179.44
2023-01-22T01:00:07.524Z,98184.40
2023-01-22T01:03:02.036Z,98187.98
2023-01-22T01:05:38.827Z,98187.56
2023-01-22T01:08:11.437Z,98194.67
2023-01-22T01:10:45.296Z,98183.41
2023-01-22T01:13:18.468Z,98184.61
2023-01-22T01:15:51.786Z,98184.30
2023-01-22T01:18:44.575Z,98189.94
2023-01-22T01:21:19.849Z,98195.57
2023-01-22T01:23:58.586Z,98196.20
2023-01-22T01:26:34.242Z,98191.59
2023-01-22T01:29:10.691Z,98190.97
2023-01-22T01:31:45.057Z,98189.07
2023-01-22T01:34:17.921Z,98188.23
2023-01-22T01:36:50.692Z,98188.74
2023-01-22T01:39:23.989Z,98192.08
2023-01-22T01:41:56.416Z,98192.46
2023-01-22T01:44:32.312Z,98191.27
2023-01-22T01:47:13.056Z,98190.23
2023-01-22T01:49:50.018Z,98191.58
2023-01-22T01:52:22.968Z,98196.32
2023-01-22T01:55:00.150Z,98199.31
2023-01-22T01:57:35.342Z,98203.45
2023-01-22T02:00:14.425Z,98207.08
2023-01-22T02:02:47.965Z,98207.47
2023-01-22T02:05:21.757Z,98210.00
2023-01-22T02:07:54.498Z,98212.02
2023-01-22T02:10:27.783Z,98220.85
2023-01-22T02:13:08.012Z,98219.58
2023-01-22T02:15:42.192Z,98215.66
2023-01-22T02:18:15.093Z,98217.19
2023-01-22T02:20:57.509Z,98218.22
2023-01-22T02:23:33.052Z,98220.96
2023-01-22T02:26:08.361Z,98224.74
2023-01-22T02:28:43.836Z,98221.86
2023-01-22T02:31:16.944Z,98218.44
2023-01-22T02:33:49.523Z,98216.09
2023-01-22T02:36:23.018Z,98213.19
2023-01-22T02:38:56.138Z,98215.86
2023-01-22T02:41:29.180Z,98216.55
2023-01-22T02:44:01.742Z,98216.17
2023-01-22T02:46:34.481Z,98213.27
2023-01-22T02:49:07.504Z,98211.46
2023-01-22T02:51:40.598Z,98209.57
2023-01-22T02:54:13.419Z,98208.61
2023-01-22T02:56:46.357Z,98205.86
2023-01-22T02:59:18.942Z,98205.99
2023-01-22T03:01:52.527Z,98204.11
2023-01-22T03:04:27.724Z,98205.30
2023-01-22T03:07:00.205Z,98204.21
2023-01-22T03:09:33.399Z,98204.77
2023-01-22T03:12:07.856Z,98208.66
2023-01-22T03:14:58.340Z,98203.64
2023-01-22T03:17:47.763Z,98207.66
2023-01-22T03:20:38.250Z,98206.54
2023-01-22T03:23:11.196Z,98206.04
2023-01-22T03:25:43.681Z,98207.09
2023-01-22T03:28:19.686Z,98213.09
2023-01-22T03:30:59.120Z,98220.48
2023-01-22T03:33:31.874Z,98215.05
2023-01-22T03:36:10.493Z,98212.81
2023-01-22T03:38:46.094Z,98215.20
2023-01-22T03:41:21.891Z,98219.22
2023-01-22T03:43:54.533Z,98223.98
2023-01-22T03:46:32.223Z,98227.72
2023-01-22T03:49:04.819Z,98233.08
2023-01-22T03:51:38.381Z,98230.89
2023-01-22T03:54:12.129Z,98230.20
2023-01-22T03:56:45.304Z,98225.42
2023-01-22T03:59:29.272Z,98229.29
2023-01-22T04:02:02.146Z,98233.34
2023-01-22T04:04:35.144Z,98231.56
2023-01-22T04:07:08.092Z,98228.77
2023-01-22T04:09:40.553Z,98230.66
2023-01-22T04:12:13.852Z,98231.23
2023-01-22T04:14:48.036Z,98234.95
2023-01-22T04:17:20.875Z,98241.00
2023-01-22T04:20:07.614Z,98240.58
2023-01-22T04:23:03.413Z,98242.67
2023-01-22T04:25:36.077Z,98242.20
2023-01-22T04:28:09.032Z,98244.91
2023-01-22T04:30:42.279Z,98241.27
2023-01-22T04:33:31.567Z,98244.05
2023-01-22T04:36:13.433Z,98244.54
2023-01-22T04:38:46.172Z,98246.30
2023-01-22T04:41:18.853Z,98245.64
2023-01-22T04:43:52.473Z,98246.15
2023-01-22T04:46:28.134Z,98249.51
2023-01-22T04:49:00.893Z,98249.95
2023-01-22T04:51:33.456Z,98252.91
2023-01-22T04:54:06.022Z,98252.42
2023-01-22T04:56:39.102Z,98250.52
2023-01-22T04:59:11.934Z,98250.92
2023-01-22T05:01:47.744Z,98254.69
2023-01-22T05:04:22.096Z,98259.43
2023-01-22T05:06:55.690Z,98258.38
2023-01-22T05:09:29.410Z,98254.50
2023-01-22T05:12:05.493Z,98252.83
2023-01-22T05:14:44.598Z,98258.98
2023-01-22T05:17:17.411Z,98254.93
2023-01-22T05:19:49.983Z,98249.42
2023-01-22T05:22:26.132Z,98253.05
2023-01-22T05:24:59.293Z,98263.00
2023-01-22T05:27:33.004Z,98258.30
2023-01-22T05:30:13.438Z,98258.42
2023-01-22T05:33:12.534Z,98255.88
2023-01-22T05:35:45.646Z,98262.05
2023-01-22T05:38:19.363Z,98263.62
2023-01-22T05:40:51.901Z,98264.83
2023-01-22T05:43:24.906Z,98274.54
2023-01-22T05:46:06.269Z,98272.83
2023-01-22T05:48:47.733Z,98270.80
2023-01-22T05:51:24.655Z,98273.64
2023-01-22T05:53:56.554Z,98279.29
2023-01-22T05:56:33.538Z,98282.11
2023-01-22T05:59:06.343Z,98278.60
2023-01-22T06:01:39.102Z,98282.42
2023-01-22T06:04:12.055Z,98280.70
2023-01-22T06:06:44.673Z,98284.36
2023-01-22T06:09:17.223Z,98289.02
2023-01-22T06:11:53.976Z,98290.98
2023-01-22T06:14:26.832Z,98296.70
2023-01-22T06:17:02.533Z,98299.42
2023-01-22T06:19:43.815Z,98302.48
2023-01-22T06:22:16.741Z,98310.84
2023-01-22T06:24:53.649Z,98310.36
2023-01-22T06:27:27.860Z,98308.27
2023-01-22T06:30:05.751Z,98311.95
2023-01-22T06:32:37.056Z,98321.16
2023-01-22T06:35:10.704Z,98329.20
2023-01-22T06:37:43.776Z,98332.52
2023-01-22T06:40:17.891Z,98334.61
2023-01-22T06:42:51.960Z,98337.52
2023-01-22T06:45:24.706Z,98341.98
2023-01-22T06:47:59.423Z,98338.09
2023-01-22T06:50:31.979Z,98337.68
2023-01-22T06:53:05.470Z,98336.45
2023-01-22T06:55:38.247Z,98333.10
2023-01-22T06:58:10.973Z,98339.60
2023-01-22T07:00:43.258Z,98341.55
2023-01-22T07:03:16.946Z,98339.55
2023-01-22T07:05:47.671Z,98337.05
2023-01-22T07:08:20.344Z,98339.16
2023-01-22T07:10:52.834Z,98339.55
2023-01-22T07:13:25.719Z,98342.86
2023-01-22T07:15:58.696Z,98347.52
2023-01-22T07:18:31.466Z,98349.73
2023-01-22T07:21:06.682Z,98352.98
2023-01-22T07:23:39.406Z,98353.27
2023-01-22T07:26:12.261Z,98358.68
2023-01-22T07:28:45.132Z,98362.82
2023-01-22T07:31:19.526Z,98361.84
2023-01-22T07:33:54.383Z,98367.27
2023-01-22T07:36:27.106Z,98374.13
2023-01-22T07:39:00.010Z,98379.59
2023-01-22T07:41:32.669Z,98384.04
2023-01-22T07:44:07.986Z,98384.36
2023-01-22T07:46:42.579Z,98384.44
2023-01-22T07:49:15.834Z,98387.44
2023-01-22T07:51:48.584Z,98391.29
2023-01-22T07:54:22.407Z,98394.79
2023-01-22T07:56:55.174Z,98391.81
2023-01-22T07:59:28.495Z,98389.45
2023-01-22T08:02:03.350Z,98385.43
2023-01-22T08:04:36.133Z,98378.38
2023-01-22T08:07:09.134Z,98373.91
2023-01-22T08:09:42.060Z,98374.25
2023-01-22T08:12:14.787Z,98375.70
2023-01-22T08:14:47.280Z,98375.23
2023-01-22T08:17:19.992Z,98379.77
2023-01-22T08:19:53.908Z,98381.73
2023-01-22T08:22:26.861Z,98382.98
2023-01-22T08:24:59.664Z,98380.03
2023-01-22T08:27:35.403Z,98378.27
2023-01-22T08:30:12.837Z,98377.25
2023-01-22T08:32:47.473Z,98384.73
2023-01-22T08:35:20.359Z,98386.76
2023-01-22T08:37:53.057Z,98379.14
2023-01-22T08:40:25.809Z,98377.33
2023-01-22T08:42:58.921Z,98375.83
2023-01-22T08:45:31.874Z,98380.17
2023-01-22T08:48:04.682Z,98379.61
2023-01-22T08:50:37.648Z,98378.31
2023-01-22T08:53:10.520Z,98375.80
2023-01-22T08:55:43.261Z,98372.22
2023-01-22T08:58:15.939Z,98374.11
2023-01-22T09:00:49.130Z,98379.77
2023-01-22T09:03:21.894Z,98378.15
2023-01-22T09:05:54.416Z,98374.49
2023-01-22T09:08:26.952Z,98374.39
2023-01-22T09:10:59.935Z,98373.48
2023-01-22T09:13:32.575Z,98377.67
2023-01-22T09:16:06.551Z,98380.35
2023-01-22T09:18:39.353Z,98390.05
2023-01-22T09:21:12.614Z,98384.70
2023-01-22T09:23:46.223Z,98383.20
2023-01-22T09:26:16.985Z,98389.54
2023-01-22T09:28:49.644Z,98390.80
2023-01-22T09:31:22.618Z,98388.50
2023-01-22T09:33:56.177Z,98382.59
2023-01-22T09:36:28.979Z,98374.30
2023-01-22T09:39:01.840Z,98372.96
2023-01-22T09:41:38.648Z,98371.61
2023-01-22T09:44:18.426Z,98373.48
2023-01-22T09:46:54.164Z,98370.75
2023-01-22T09:49:31.430Z,98371.58
2023-01-22T09:52:05.462Z,98379.80
2023-01-22T09:54:38.320Z,98372.84
2023-01-22T09:57:30.825Z,98371.36
2023-01-22T10:00:05.233Z,98367.39
2023-01-22T10:02:46.782Z,98367.11
2023-01-22T10:05:25.511Z,98372.45
2023-01-22T10:08:06.618Z,98382.80
2023-01-22T10:10:39.921Z,98383.59
2023-01-22T10:13:18.423Z,98382.13
2023-01-22T10:15:51.892Z,98379.71
2023-01-22T10:18:35.584Z,98385.27
2023-01-22T10:21:15.568Z,98384.31
2023-01-22T10:23:50.633Z,98385.14
2023-01-22T10:26:28.201Z,98384.26
2023-01-22T10:29:05.753Z,98376.81
2023-01-22T10:31:41.205Z,98371.70
2023-01-22T10:34:22.114Z,98371.89
2023-01-22T10:36:56.084Z,98376.23
2023-01-22T10:39:29.038Z,98376.85
2023-01-22T10:42:06.015Z,98375.36
2023-01-22T10:44:40.615Z,98369.64
2023-01-22T10:47:21.051Z,98373.14
2023-01-22T10:50:05.893Z,98372.10
2023-01-22T10:52:43.049Z,98364.80
2023-01-22T10:55:25.413Z,98364.40
2023-01-22T10:58:03.119Z,98364.02
2023-01-22T11:00:51.210Z,98364.15
2023-01-22T11:03:30.323Z,98371.98
2023-01-22T11:06:06.501Z,98368.02
2023-01-22T11:09:02.829Z,98372.66
2023-01-22T11:11:40.904Z,98379.89
2023-01-22T11:14:22.153Z,98378.33
2023-01-22T11:16:58.543Z,98381.62
2023-01-22T11:19:41.613Z,98382.11
2023-01-22T11:22:28.333Z,98376.36
2023-01-22T11:25:01.387Z,98371.15
2023-01-22T11:28:01.232Z,98370.58
2023-01-22T11:30:59.406Z,98369.73
2023-01-22T11:34:06.364Z,98376.94
2023-01-22T11:36:44.314Z,98376.30
2023-01-22T11:39:33.464Z,98373.60
2023-01-22T11:42:19.781Z,98371.64
2023-01-22T11:45:06.935Z,98372.23
2023-01-22T11:48:21.422Z,98375.42
2023-01-22T11:51:00.936Z,98375.95
2023-01-22T11:53:59.210Z,98378.39
2023-01-22T11:56:49.454Z,98374.92
2023-01-22T11:59:33.123Z,98378.27
2023-01-22T12:02:32.546Z,98377.30
2023-01-22T12:05:15.334Z,98370.77
2023-01-22T12:08:02.505Z,98369.80
2023-01-22T12:11:05.817Z,98375.68
2023-01-22T12:14:03.224Z,98376.40
2023-01-22T12:16:45.455Z,98375.19
2023-01-22T12:19:38.507Z,98382.68
2023-01-22T12:22:31.339Z,98386.34
2023-01-22T12:25:15.226Z,98383.05
2023-01-22T12:27:53.933Z,98386.46
2023-01-22T12:30:31.263Z,98390.51
2023-01-22T12:33:08.985Z,98389.05
2023-01-22T12:35:43.516Z,98391.89
2023-01-22T12:38:32.343Z,98394.27
2023-01-22T12:41:20.043Z,98399.74
2023-01-22T12:43:55.946Z,98401.83
2023-01-22T12:46:50.423Z,98402.52
2023-01-22T12:49:23.215Z,98403.73
2023-01-22T12:51:57.394Z,98400.67
2023-01-22T12:54:36.806Z,98403.91
2023-01-22T12:57:38.525Z,98411.08
2023-01-22T13:00:31.185Z,98414.28
2023-01-22T13:03:04.994Z,98412.63
2023-01-22T13:05:47.533Z,98412.80
2023-01-22T13:08:37.540Z,98410.73
2023-01-22T13:11:15.593Z,98410.90
2023-01-22T13:13:55.164Z,98416.52
2023-01-22T13:16:41.336Z,98410.42
2023-01-22T13:19:25.405Z,98411.90
2023-01-22T13:21:59.710Z,98410.66
2023-01-22T13:24:32.955Z,98413.84
2023-01-22T13:27:07.129Z,98421.00
2023-01-22T13:29:42.442Z,98425.86
2023-01-22T13:32:23.670Z,98428.90
2023-01-22T13:35:05.632Z,98431.73
2023-01-22T13:37:39.221Z,98442.54
2023-01-22T13:40:29.268Z,98442.92
2023-01-22T13:43:03.248Z,98443.98
2023-01-22T13:45:37.117Z,98445.36
2023-01-22T13:48:16.281Z,98455.39
2023-01-22T13:50:56.602Z,98455.98
2023-01-22T13:53:33.224Z,98449.39
2023-01-22T13:56:06.744Z,98457.20
2023-01-22T13:58:48.384Z,98460.46
2023-01-22T14:01:33.472Z,98462.61
2023-01-22T14:04:24.955Z,98465.34
2023-01-22T14:06:58.184Z,98467.55
2023-01-22T14:09:33.515Z,98468.39
2023-01-22T14:12:19.862Z,98463.27
2023-01-22T14:14:54.628Z,98462.59
2023-01-22T14:17:30.971Z,98468.55
2023-01-22T14:20:06.125Z,98473.75
2023-01-22T14:22:39.313Z,98479.40
2023-01-22T14:25:13.477Z,98476.35
2023-01-22T14:27:49.358Z,98481.92
2023-01-22T14:30:23.183Z,98478.79
2023-01-22T14:32:55.770Z,98475.55
2023-01-22T14:35:30.342Z,98482.63
2023-01-22T14:38:03.230Z,98485.80
2023-01-22T14:40:36.204Z,98484.77
2023-01-22T14:43:09.656Z,98481.67
2023-01-22T14:45:43.004Z,98483.70
2023-01-22T14:48:18.953Z,98480.61
2023-01-22T14:50:52.710Z,98483.98
2023-01-22T14:53:26.068Z,98482.73
2023-01-22T14:56:01.732Z,98491.06
2023-01-22T14:58:35.133Z,98490.34
2023-01-22T15:01:18.370Z,98495.46
2023-01-22T15:03:55.596Z,98502.23
2023-01-22T15:06:29.687Z,98505.77
2023-01-22T15:09:02.394Z,98510.09
2023-01-22T15:11:35.184Z,98513.79
2023-01-22T15:14:08.483Z,98518.33
2023-01-22T15:16:41.379Z,98523.13
2023-01-22T15:19:14.433Z,98519.53
2023-01-22T15:21:47.208Z,98514.40
2023-01-22T15:24:20.155Z,98513.91
2023-01-22T15:26:52.857Z,98520.20
2023-01-22T15:29:25.824Z,98522.66
2023-01-22T15:31:58.735Z,98530.33
2023-01-22T15:34:32.209Z,98540.33
2023-01-22T15:37:05.343Z,98542.15
2023-01-22T15:39:39.944Z,98537.23
2023-01-22T15:42:12.477Z,98534.36
2023-01-22T15:44:45.534Z,98537.50
2023-01-22T15:47:18.304Z,98539.96
2023-01-22T15:49:51.686Z,98542.91
2023-01-22T15:52:24.877Z,98543.49
2023-01-22T15:54:58.588Z,98540.77
2023-01-22T15:57:32.675Z,98547.23
2023-01-22T16:00:06.759Z,98547.63
2023-01-22T16:02:45.339Z,98554.14
2023-01-22T16:05:20.573Z,98564.38
2023-01-22T16:07:54.645Z,98572.74
2023-01-22T16:10:30.177Z,98578.73
2023-01-22T16:13:03.045Z,98580.63
2023-01-22T16:15:35.714Z,98577.73
2023-01-22T16:18:08.555Z,98579.05
2023-01-22T16:20:41.215Z,98579.73
2023-01-22T16:23:13.703Z,98586.14
2023-01-22T16:25:46.196Z,98594.70
2023-01-22T16:28:26.625Z,98594.59
2023-01-22T16:31:08.237Z,98595.84
2023-01-22T16:33:44.118Z,98595.66
2023-01-22T16:36:19.484Z,98595.81
2023-01-22T16:38:52.381Z,98599.60
2023-01-22T16:41:28.550Z,98602.06
2023-01-22T16:44:03.694Z,98606.51
2023-01-22T16:46:37.320Z,98609.20
2023-01-22T16:49:14.948Z,98606.27
2023-01-22T16:51:49.779Z,98606.23
2023-01-22T16:54:28.180Z,98613.23
2023-01-22T16:57:02.086Z,98610.84
2023-01-22T16:59:36.939Z,98614.09
2023-01-22T17:02:16.508Z,98618.70
2023-01-22T17:04:49.224Z,98625.05
2023-01-22T17:07:33.561Z,98630.68
2023-01-22T17:10:11.143Z,98629.52
2023-01-22T17:12:47.726Z,98629.86
2023-01-22T17:15:29.321Z,98631.90
2023-01-22T17:18:05.323Z,98634.91
2023-01-22T17:20:53.791Z,98634.23
2023-01-22T17:23:38.343Z,98639.53
2023-01-22T17:26:22.661Z,98643.98
2023-01-22T17:28:59.803Z,98656.97
2023-01-22T17:31:39.037Z,98660.20
2023-01-22T17:34:24.491Z,98664.13
2023-01-22T17:37:00.676Z,98670.23
2023-01-22T17:39:39.581Z,98673.00
2023-01-22T17:42:16.853Z,98674.52
2023-01-22T17:44:57.973Z,98676.07
2023-01-22T17:47:35.953Z,98679.65
2023-01-22T17:50:14.780Z,98683.77
2023-01-22T17:52:51.200Z,98683.40
2023-01-22T17:55:28.577Z,98689.59
2023-01-22T17:58:05.554Z,98695.13
2023-01-22T18:00:43.302Z,98700.65
2023-01-22T18:03:22.505Z,98701.99
2023-01-22T18:06:00.223Z,98698.10
2023-01-22T18:08:40.192Z,98697.67
2023-01-22T18:11:21.152Z,98702.61
2023-01-22T18:13:57.456Z,98706.36
2023-01-22T18:16:36.289Z,98705.95
2023-01-22T18:19:12.979Z,98710.92
2023-01-22T18:21:50.294Z,98715.17
2023-01-22T18:24:32.989Z,98715.01
2023-01-22T18:27:10.876Z,98714.66
2023-01-22T18:29:51.293Z,98721.96
2023-01-22T18:32:28.635Z,98721.27
2023-01-22T18:35:04.944Z,98725.18
2023-01-22T18:37:41.763Z,98725.80
2023-01-22T18:40:20.654Z,98728.66
2023-01-22T18:42:58.583Z,98730.30
2023-01-22T18:45:42.803Z,98734.87
2023-01-22T18:48:24.932Z,98739.91
2023-01-22T18:51:03.607Z,98742.73
2023-01-22T18:53:46.135Z,98742.41
2023-01-22T18:56:32.628Z,98741.15
2023-01-22T18:59:13.583Z,98742.84
2023-01-22T19:01:55.376Z,98743.98
2023-01-22T19:04:34.893Z,98738.11
2023-01-22T19:07:18.365Z,98738.78
2023-01-22T19:10:19.944Z,98745.27
2023-01-22T19:13:07.225Z,98742.63
2023-01-22T19:15:48.355Z,98741.69
2023-01-22T19:18:31.157Z,98745.00
2023-01-22T19:21:19.750Z,98746.86
2023-01-22T19:24:02.802Z,98749.94
2023-01-22T19:26:47.138Z,98753.90
2023-01-22T19:29:28.849Z,98750.02
2023-01-22T19:32:08.161Z,98747.14
2023-01-22T19:34:49.631Z,98751.58
2023-01-22T19:37:33.783Z,98752.91
2023-01-22T19:40:20.539Z,98749.61
2023-01-22T19:43:01.244Z,98756.05
2023-01-22T19:45:43.808Z,98755.93
2023-01-22T19:48:25.121Z,98758.17
2023-01-22T19:51:13.894Z,98754.13
2023-01-22T19:53:52.184Z,98758.88
2023-01-22T19:56:34.200Z,98762.51
2023-01-22T19:59:16.633Z,98771.58
2023-01-22T20:01:54.063Z,98770.26
2023-01-22T20:04:38.951Z,98773.38
2023-01-22T20:07:17.459Z,98776.27
2023-01-22T20:09:55.770Z,98780.39
2023-01-22T20:12:36.134Z,98787.89
2023-01-22T20:15:24.625Z,98789.29
2023-01-22T20:18:12.313Z,98790.62
2023-01-22T20:21:07.012Z,98792.69
2023-01-22T20:23:50.153Z,98798.81
2023-01-22T20:26:37.298Z,98799.99
2023-01-22T20:29:19.358Z,98804.23
2023-01-22T20:32:04.421Z,98805.79
2023-01-22T20:34:50.986Z,98801.29
2023-01-22T20:37:28.875Z,98799.41
2023-01-22T20:40:11.536Z,98801.22
2023-01-22T20:42:56.758Z,98801.20
2023-01-22T20:45:35.033Z,98805.14
2023-01-22T20:48:18.583Z,98805.48
2023-01-22T20:51:02.502Z,98805.42
2023-01-22T20:53:47.677Z,98813.39
2023-01-22T20:56:34.762Z,98818.15
2023-01-22T20:59:18.445Z,98825.59
2023-01-22T21:02:04.317Z,98828.89
2023-01-22T21:04:46.739Z,98835.61
2023-01-22T21:07:29.023Z,98832.20
2023-01-22T21:10:10.969Z,98825.16
2023-01-22T21:12:50.139Z,98819.52
2023-01-22T21:15:36.644Z,98816.45
2023-01-22T21:18:17.322Z,98816.15
2023-01-22T21:21:00.217Z,98821.91
2023-01-22T21:23:39.258Z,98822.58
2023-01-22T21:26:20.288Z,98827.98
2023-01-22T21:29:00.240Z,98825.92
2023-01-22T21:31:37.021Z,98824.52
2023-01-22T21:34:12.929Z,98824.05
2023-01-22T21:36:51.822Z,98828.94
2023-01-22T21:39:30.580Z,98829.09
2023-01-22T21:42:31.802Z,98839.35
2023-01-22T21:45:26.448Z,98846.87
2023-01-22T21:48:02.058Z,98847.44
2023-01-22T21:50:41.482Z,98852.39
2023-01-22T21:53:17.348Z,98853.48
2023-01-22T21:55:58.736Z,98851.95
2023-01-22T21:58:35.967Z,98849.17
2023-01-22T22:01:16.362Z,98852.61
2023-01-22T22:03:52.080Z,98856.90
2023-01-22T22:06:27.921Z,98861.39
2023-01-22T22:09:06.279Z,98860.56
2023-01-22T22:11:43.426Z,98858.34
2023-01-22T22:14:23.067Z,98863.91
2023-01-22T22:16:59.296Z,98860.85
2023-01-22T22:19:33.977Z,98860.89
2023-01-22T22:22:09.510Z,98863.77
2023-01-22T22:24:51.546Z,98873.11
2023-01-22T22:27:28.324Z,98867.06
2023-01-22T22:30:04.762Z,98860.77
2023-01-22T22:32:40.748Z,98858.39
2023-01-22T22:35:17.078Z,98860.06
2023-01-22T22:37:52.780Z,98861.58
2023-01-22T22:40:29.472Z,98863.27
2023-01-22T22:43:06.159Z,98863.89
2023-01-22T22:45:44.000Z,98867.30
2023-01-22T22:48:20.912Z,98870.06
2023-01-22T22:50:56.020Z,98876.81
2023-01-22T22:53:32.631Z,98883.27
2023-01-22T22:56:09.120Z,98886.99
2023-01-22T22:58:44.458Z,98889.48
2023-01-22T23:01:21.645Z,98891.75
2023-01-22T23:03:55.057Z,98894.98
2023-01-22T23:06:29.862Z,98896.96
2023-01-22T23:09:15.493Z,98895.16
2023-01-22T23:11:51.859Z,98896.04
2023-01-22T23:14:24.492Z,98899.59
2023-01-22T23:16:57.974Z,98907.65
2023-01-22T23:19:32.273Z,98918.75
2023-01-22T23:22:05.381Z,98921.14
2023-01-22T23:24:40.594Z,98917.14
2023-01-22T23:27:13.348Z,98911.69
2023-01-22T23:29:46.504Z,98907.25
2023-01-22T23:32:23.691Z,98905.58
2023-01-22T23:34:56.617Z,98909.14
2023-01-22T23:37:29.465Z,98912.48
2023-01-22T23:40:02.186Z,98912.49
2023-01-22T23:42:34.803Z,98909.20
2023-01-22T23:45:09.196Z,98912.95
2023-01-22T23:47:44.507Z,98916.93
2023-01-22T23:50:17.638Z,98922.67
2023-01-22T23:52:50.905Z,98925.45
2023-01-22T23:55:24.133Z,98927.65
2023-01-22T23:57:57.185Z,98930.01
